sensor_id;sensor_type;location;lat;lon;timestamp;P1;durP1;ratioP1;P2;durP2;ratioP2
29934;SDS011;19905;53.370;-6.314;2022-09-14T00:01:42;15.15;;;6.35;;
29934;SDS011;19905;53.370;-6.314;2022-09-14T00:04:11;13.98;;;5.88;;
29934;SDS011;19905;53.370;-6.314;2022-09-14T00:06:42;19.85;;;6.45;;
29934;SDS011;19905;53.370;-6.314;2022-09-14T00:09:12;17.17;;;7.82;;
29934;SDS011;19905;53.370;-6.314;2022-09-14T00:11:45;26.88;;;9.98;;
29934;SDS011;19905;53.370;-6.314;2022-09-14T00:14:15;37.15;;;14.25;;
29934;SDS011;19905;53.370;-6.314;2022-09-14T00:16:44;46.45;;;16.65;;
29934;SDS011;19905;53.370;-6.314;2022-09-14T00:19:15;48.63;;;17.98;;
29934;SDS011;19905;53.370;-6.314;2022-09-14T00:21:48;44.30;;;16.35;;
29934;SDS011;19905;53.370;-6.314;2022-09-14T00:24:17;36.80;;;12.77;;
29934;SDS011;19905;53.370;-6.314;2022-09-14T00:26:47;25.88;;;8.95;;
29934;SDS011;19905;53.370;-6.314;2022-09-14T00:29:16;24.27;;;8.02;;
29934;SDS011;19905;53.370;-6.314;2022-09-14T00:31:46;16.77;;;6.10;;
29934;SDS011;19905;53.370;-6.314;2022-09-14T00:34:14;18.55;;;5.65;;
29934;SDS011;19905;53.370;-6.314;2022-09-14T00:36:44;17.02;;;5.30;;
29934;SDS011;19905;53.370;-6.314;2022-09-14T00:39:15;18.73;;;5.28;;
29934;SDS011;19905;53.370;-6.314;2022-09-14T00:41:45;21.52;;;5.75;;
29934;SDS011;19905;53.370;-6.314;2022-09-14T00:47:28;15.70;;;5.75;;
29934;SDS011;19905;53.370;-6.314;2022-09-14T00:50:00;15.05;;;5.13;;
29934;SDS011;19905;53.370;-6.314;2022-09-14T00:52:33;16.98;;;5.70;;
29934;SDS011;19905;53.370;-6.314;2022-09-14T00:55:05;17.98;;;5.05;;
29934;SDS011;19905;53.370;-6.314;2022-09-14T00:57:39;18.13;;;4.80;;
29934;SDS011;19905;53.370;-6.314;2022-09-14T01:00:10;15.48;;;4.20;;
29934;SDS011;19905;53.370;-6.314;2022-09-14T01:02:40;15.55;;;4.18;;
29934;SDS011;19905;53.370;-6.314;2022-09-14T01:05:09;13.65;;;4.10;;
29934;SDS011;19905;53.370;-6.314;2022-09-14T01:10:47;13.82;;;3.45;;
29934;SDS011;19905;53.370;-6.314;2022-09-14T01:13:35;11.93;;;3.13;;
29934;SDS011;19905;53.370;-6.314;2022-09-14T01:16:10;13.65;;;3.78;;
29934;SDS011;19905;53.370;-6.314;2022-09-14T01:18:49;13.15;;;3.22;;
29934;SDS011;19905;53.370;-6.314;2022-09-14T01:21:22;14.82;;;3.47;;
29934;SDS011;19905;53.370;-6.314;2022-09-14T01:23:55;13.95;;;3.20;;
29934;SDS011;19905;53.370;-6.314;2022-09-14T01:29:55;18.42;;;3.50;;
29934;SDS011;19905;53.370;-6.314;2022-09-14T01:32:30;16.02;;;2.90;;
29934;SDS011;19905;53.370;-6.314;2022-09-14T01:35:04;13.65;;;2.85;;
29934;SDS011;19905;53.370;-6.314;2022-09-14T01:37:42;17.45;;;3.00;;
29934;SDS011;19905;53.370;-6.314;2022-09-14T01:40:15;14.55;;;3.10;;
29934;SDS011;19905;53.370;-6.314;2022-09-14T01:42:49;12.95;;;3.00;;
29934;SDS011;19905;53.370;-6.314;2022-09-14T01:45:23;17.98;;;3.60;;
29934;SDS011;19905;53.370;-6.314;2022-09-14T01:47:56;14.82;;;2.90;;
29934;SDS011;19905;53.370;-6.314;2022-09-14T01:50:30;14.80;;;3.70;;
29934;SDS011;19905;53.370;-6.314;2022-09-14T01:53:04;11.85;;;3.25;;
29934;SDS011;19905;53.370;-6.314;2022-09-14T01:55:38;15.60;;;3.20;;
29934;SDS011;19905;53.370;-6.314;2022-09-14T01:58:13;15.52;;;3.50;;
29934;SDS011;19905;53.370;-6.314;2022-09-14T02:00:50;15.30;;;3.13;;
29934;SDS011;19905;53.370;-6.314;2022-09-14T02:03:23;12.77;;;3.40;;
29934;SDS011;19905;53.370;-6.314;2022-09-14T02:05:58;14.15;;;3.50;;
29934;SDS011;19905;53.370;-6.314;2022-09-14T02:08:32;12.93;;;3.40;;
29934;SDS011;19905;53.370;-6.314;2022-09-14T02:11:01;12.90;;;3.75;;
29934;SDS011;19905;53.370;-6.314;2022-09-14T02:13:30;17.42;;;3.78;;
29934;SDS011;19905;53.370;-6.314;2022-09-14T02:16:00;18.05;;;4.22;;
29934;SDS011;19905;53.370;-6.314;2022-09-14T02:18:29;11.95;;;3.40;;
29934;SDS011;19905;53.370;-6.314;2022-09-14T02:20:59;13.73;;;3.97;;
29934;SDS011;19905;53.370;-6.314;2022-09-14T02:23:30;11.27;;;3.97;;
29934;SDS011;19905;53.370;-6.314;2022-09-14T02:26:01;16.15;;;3.95;;
29934;SDS011;19905;53.370;-6.314;2022-09-14T02:28:31;14.02;;;3.70;;
29934;SDS011;19905;53.370;-6.314;2022-09-14T02:31:04;13.95;;;4.20;;
29934;SDS011;19905;53.370;-6.314;2022-09-14T02:33:44;13.95;;;3.90;;
29934;SDS011;19905;53.370;-6.314;2022-09-14T02:36:20;16.80;;;3.78;;
29934;SDS011;19905;53.370;-6.314;2022-09-14T02:38:56;17.35;;;4.28;;
29934;SDS011;19905;53.370;-6.314;2022-09-14T02:41:33;19.83;;;4.22;;
29934;SDS011;19905;53.370;-6.314;2022-09-14T02:44:09;10.20;;;3.97;;
29934;SDS011;19905;53.370;-6.314;2022-09-14T02:46:48;15.90;;;4.03;;
29934;SDS011;19905;53.370;-6.314;2022-09-14T02:49:24;16.92;;;4.20;;
29934;SDS011;19905;53.370;-6.314;2022-09-14T02:51:58;20.42;;;4.32;;
29934;SDS011;19905;53.370;-6.314;2022-09-14T02:54:39;14.73;;;4.10;;
29934;SDS011;19905;53.370;-6.314;2022-09-14T02:57:13;14.60;;;4.15;;
29934;SDS011;19905;53.370;-6.314;2022-09-14T02:59:43;13.02;;;4.63;;
29934;SDS011;19905;53.370;-6.314;2022-09-14T03:02:13;13.98;;;3.78;;
29934;SDS011;19905;53.370;-6.314;2022-09-14T03:04:42;10.25;;;4.07;;
29934;SDS011;19905;53.370;-6.314;2022-09-14T03:07:10;13.57;;;4.40;;
29934;SDS011;19905;53.370;-6.314;2022-09-14T03:09:39;11.55;;;3.70;;
29934;SDS011;19905;53.370;-6.314;2022-09-14T03:12:07;19.70;;;4.68;;
29934;SDS011;19905;53.370;-6.314;2022-09-14T03:14:36;12.68;;;4.05;;
29934;SDS011;19905;53.370;-6.314;2022-09-14T03:17:05;8.73;;;3.70;;
29934;SDS011;19905;53.370;-6.314;2022-09-14T03:19:35;16.33;;;4.03;;
29934;SDS011;19905;53.370;-6.314;2022-09-14T03:22:03;16.52;;;4.25;;
29934;SDS011;19905;53.370;-6.314;2022-09-14T03:24:31;15.30;;;3.88;;
29934;SDS011;19905;53.370;-6.314;2022-09-14T03:27:00;16.00;;;4.20;;
29934;SDS011;19905;53.370;-6.314;2022-09-14T03:29:28;12.00;;;4.00;;
29934;SDS011;19905;53.370;-6.314;2022-09-14T03:31:57;19.13;;;4.05;;
29934;SDS011;19905;53.370;-6.314;2022-09-14T03:34:25;15.93;;;4.10;;
29934;SDS011;19905;53.370;-6.314;2022-09-14T03:36:55;19.30;;;4.00;;
29934;SDS011;19905;53.370;-6.314;2022-09-14T03:39:24;13.73;;;3.78;;
29934;SDS011;19905;53.370;-6.314;2022-09-14T03:41:54;13.13;;;3.63;;
29934;SDS011;19905;53.370;-6.314;2022-09-14T03:44:22;18.98;;;4.07;;
29934;SDS011;19905;53.370;-6.314;2022-09-14T03:46:51;13.73;;;3.58;;
29934;SDS011;19905;53.370;-6.314;2022-09-14T03:49:20;15.00;;;3.42;;
29934;SDS011;19905;53.370;-6.314;2022-09-14T03:51:49;14.88;;;3.45;;
29934;SDS011;19905;53.370;-6.314;2022-09-14T03:54:26;14.02;;;3.50;;
29934;SDS011;19905;53.370;-6.314;2022-09-14T03:56:55;14.57;;;3.25;;
29934;SDS011;19905;53.370;-6.314;2022-09-14T03:59:24;15.38;;;3.70;;
29934;SDS011;19905;53.370;-6.314;2022-09-14T04:01:52;15.00;;;3.60;;
29934;SDS011;19905;53.370;-6.314;2022-09-14T04:04:21;11.02;;;3.47;;
29934;SDS011;19905;53.370;-6.314;2022-09-14T04:06:49;15.02;;;3.55;;
29934;SDS011;19905;53.370;-6.314;2022-09-14T04:09:18;14.70;;;3.50;;
29934;SDS011;19905;53.370;-6.314;2022-09-14T04:11:48;10.95;;;3.28;;
29934;SDS011;19905;53.370;-6.314;2022-09-14T04:14:16;12.15;;;3.40;;
29934;SDS011;19905;53.370;-6.314;2022-09-14T04:16:45;17.27;;;3.63;;
29934;SDS011;19905;53.370;-6.314;2022-09-14T04:19:14;13.93;;;3.90;;
29934;SDS011;19905;53.370;-6.314;2022-09-14T04:21:42;14.85;;;3.95;;
29934;SDS011;19905;53.370;-6.314;2022-09-14T04:24:11;11.60;;;3.92;;
29934;SDS011;19905;53.370;-6.314;2022-09-14T04:26:42;12.27;;;3.80;;
29934;SDS011;19905;53.370;-6.314;2022-09-14T04:29:12;21.52;;;4.18;;
29934;SDS011;19905;53.370;-6.314;2022-09-14T04:31:41;14.23;;;3.85;;
29934;SDS011;19905;53.370;-6.314;2022-09-14T04:34:11;16.23;;;4.18;;
29934;SDS011;19905;53.370;-6.314;2022-09-14T04:36:40;18.17;;;4.30;;
29934;SDS011;19905;53.370;-6.314;2022-09-14T04:39:10;15.15;;;3.97;;
29934;SDS011;19905;53.370;-6.314;2022-09-14T04:41:40;15.85;;;4.18;;
29934;SDS011;19905;53.370;-6.314;2022-09-14T04:44:09;14.65;;;4.32;;
29934;SDS011;19905;53.370;-6.314;2022-09-14T04:46:40;10.18;;;4.13;;
29934;SDS011;19905;53.370;-6.314;2022-09-14T04:49:12;13.60;;;4.22;;
29934;SDS011;19905;53.370;-6.314;2022-09-14T04:51:42;11.82;;;4.47;;
29934;SDS011;19905;53.370;-6.314;2022-09-14T04:54:13;12.80;;;4.80;;
29934;SDS011;19905;53.370;-6.314;2022-09-14T04:56:43;16.88;;;4.65;;
29934;SDS011;19905;53.370;-6.314;2022-09-14T04:59:12;11.68;;;4.00;;
29934;SDS011;19905;53.370;-6.314;2022-09-14T05:01:44;21.42;;;4.57;;
29934;SDS011;19905;53.370;-6.314;2022-09-14T05:04:14;19.55;;;4.53;;
29934;SDS011;19905;53.370;-6.314;2022-09-14T05:06:43;11.80;;;4.47;;
29934;SDS011;19905;53.370;-6.314;2022-09-14T05:09:13;15.57;;;4.30;;
29934;SDS011;19905;53.370;-6.314;2022-09-14T05:11:43;11.98;;;4.78;;
29934;SDS011;19905;53.370;-6.314;2022-09-14T05:14:13;14.07;;;5.00;;
29934;SDS011;19905;53.370;-6.314;2022-09-14T05:16:42;10.93;;;5.00;;
29934;SDS011;19905;53.370;-6.314;2022-09-14T05:19:14;16.50;;;4.90;;
29934;SDS011;19905;53.370;-6.314;2022-09-14T05:21:45;15.50;;;5.57;;
29934;SDS011;19905;53.370;-6.314;2022-09-14T05:24:14;13.98;;;4.93;;
29934;SDS011;19905;53.370;-6.314;2022-09-14T05:26:44;14.48;;;5.53;;
29934;SDS011;19905;53.370;-6.314;2022-09-14T05:29:14;15.65;;;5.68;;
29934;SDS011;19905;53.370;-6.314;2022-09-14T05:31:45;19.33;;;5.72;;
29934;SDS011;19905;53.370;-6.314;2022-09-14T05:34:14;17.40;;;5.93;;
29934;SDS011;19905;53.370;-6.314;2022-09-14T05:36:43;15.88;;;5.82;;
29934;SDS011;19905;53.370;-6.314;2022-09-14T05:39:11;14.82;;;5.97;;
29934;SDS011;19905;53.370;-6.314;2022-09-14T05:41:44;13.82;;;5.70;;
29934;SDS011;19905;53.370;-6.314;2022-09-14T05:44:12;16.05;;;6.13;;
29934;SDS011;19905;53.370;-6.314;2022-09-14T05:46:41;14.18;;;5.85;;
29934;SDS011;19905;53.370;-6.314;2022-09-14T05:49:11;16.42;;;6.03;;
29934;SDS011;19905;53.370;-6.314;2022-09-14T05:51:40;16.75;;;5.85;;
29934;SDS011;19905;53.370;-6.314;2022-09-14T05:54:08;10.93;;;5.72;;
29934;SDS011;19905;53.370;-6.314;2022-09-14T05:56:37;16.02;;;5.97;;
29934;SDS011;19905;53.370;-6.314;2022-09-14T05:59:06;16.50;;;5.88;;
29934;SDS011;19905;53.370;-6.314;2022-09-14T06:01:36;14.93;;;5.80;;
29934;SDS011;19905;53.370;-6.314;2022-09-14T06:04:05;13.23;;;5.45;;
29934;SDS011;19905;53.370;-6.314;2022-09-14T06:06:35;10.25;;;5.30;;
29934;SDS011;19905;53.370;-6.314;2022-09-14T06:09:04;14.48;;;5.40;;
29934;SDS011;19905;53.370;-6.314;2022-09-14T06:11:33;12.70;;;4.80;;
29934;SDS011;19905;53.370;-6.314;2022-09-14T06:14:03;9.50;;;4.68;;
29934;SDS011;19905;53.370;-6.314;2022-09-14T06:16:32;11.60;;;4.20;;
29934;SDS011;19905;53.370;-6.314;2022-09-14T06:19:02;8.95;;;4.18;;
29934;SDS011;19905;53.370;-6.314;2022-09-14T06:21:31;9.38;;;3.70;;
29934;SDS011;19905;53.370;-6.314;2022-09-14T06:24:04;7.35;;;3.20;;
29934;SDS011;19905;53.370;-6.314;2022-09-14T06:26:36;7.47;;;3.40;;
29934;SDS011;19905;53.370;-6.314;2022-09-14T06:29:09;10.65;;;3.45;;
29934;SDS011;19905;53.370;-6.314;2022-09-14T06:31:38;9.55;;;3.78;;
29934;SDS011;19905;53.370;-6.314;2022-09-14T06:34:09;8.02;;;4.13;;
29934;SDS011;19905;53.370;-6.314;2022-09-14T06:36:37;6.40;;;3.70;;
29934;SDS011;19905;53.370;-6.314;2022-09-14T06:39:08;11.43;;;3.65;;
29934;SDS011;19905;53.370;-6.314;2022-09-14T06:41:36;8.98;;;3.95;;
29934;SDS011;19905;53.370;-6.314;2022-09-14T06:44:04;8.73;;;3.80;;
29934;SDS011;19905;53.370;-6.314;2022-09-14T06:46:33;9.85;;;4.05;;
29934;SDS011;19905;53.370;-6.314;2022-09-14T06:49:04;9.27;;;4.03;;
29934;SDS011;19905;53.370;-6.314;2022-09-14T06:51:34;7.80;;;3.90;;
29934;SDS011;19905;53.370;-6.314;2022-09-14T06:54:05;4.55;;;2.88;;
29934;SDS011;19905;53.370;-6.314;2022-09-14T06:56:37;5.65;;;3.13;;
29934;SDS011;19905;53.370;-6.314;2022-09-14T06:59:07;6.57;;;2.72;;
29934;SDS011;19905;53.370;-6.314;2022-09-14T07:01:37;6.97;;;2.70;;
29934;SDS011;19905;53.370;-6.314;2022-09-14T07:04:06;5.38;;;2.60;;
29934;SDS011;19905;53.370;-6.314;2022-09-14T07:06:38;5.10;;;2.88;;
29934;SDS011;19905;53.370;-6.314;2022-09-14T07:09:08;7.55;;;3.10;;
29934;SDS011;19905;53.370;-6.314;2022-09-14T07:11:38;10.02;;;3.05;;
29934;SDS011;19905;53.370;-6.314;2022-09-14T07:14:17;6.13;;;2.88;;
29934;SDS011;19905;53.370;-6.314;2022-09-14T07:19:41;4.28;;;2.10;;
29934;SDS011;19905;53.370;-6.314;2022-09-14T07:25:00;3.58;;;1.67;;
29934;SDS011;19905;53.370;-6.314;2022-09-14T07:30:22;4.88;;;1.77;;
29934;SDS011;19905;53.370;-6.314;2022-09-14T07:32:59;4.65;;;2.08;;
29934;SDS011;19905;53.370;-6.314;2022-09-14T07:38:42;4.07;;;1.80;;
29934;SDS011;19905;53.370;-6.314;2022-09-14T07:49:23;4.72;;;2.30;;
29934;SDS011;19905;53.370;-6.314;2022-09-14T07:54:41;5.47;;;2.33;;
29934;SDS011;19905;53.370;-6.314;2022-09-14T08:00:16;4.20;;;1.90;;
29934;SDS011;19905;53.370;-6.314;2022-09-14T08:08:40;4.00;;;2.00;;
29934;SDS011;19905;53.370;-6.314;2022-09-14T08:11:14;2.05;;;1.58;;
29934;SDS011;19905;53.370;-6.314;2022-09-14T08:13:47;1.80;;;1.33;;
29934;SDS011;19905;53.370;-6.314;2022-09-14T08:16:21;2.38;;;1.17;;
29934;SDS011;19905;53.370;-6.314;2022-09-14T08:18:52;1.67;;;1.00;;
29934;SDS011;19905;53.370;-6.314;2022-09-14T08:23:56;1.92;;;0.80;;
29934;SDS011;19905;53.370;-6.314;2022-09-14T08:26:32;2.00;;;1.10;;
29934;SDS011;19905;53.370;-6.314;2022-09-14T08:29:04;1.95;;;1.20;;
29934;SDS011;19905;53.370;-6.314;2022-09-14T08:31:43;2.25;;;1.02;;
29934;SDS011;19905;53.370;-6.314;2022-09-14T08:34:14;2.00;;;0.90;;
29934;SDS011;19905;53.370;-6.314;2022-09-14T08:36:48;1.90;;;1.10;;
29934;SDS011;19905;53.370;-6.314;2022-09-14T08:39:17;2.10;;;0.85;;
29934;SDS011;19905;53.370;-6.314;2022-09-14T08:47:19;1.08;;;0.80;;
29934;SDS011;19905;53.370;-6.314;2022-09-14T08:49:54;2.22;;;0.90;;
29934;SDS011;19905;53.370;-6.314;2022-09-14T08:52:32;3.05;;;1.00;;
29934;SDS011;19905;53.370;-6.314;2022-09-14T08:55:13;1.63;;;1.10;;
29934;SDS011;19905;53.370;-6.314;2022-09-14T09:00:31;1.80;;;1.00;;
29934;SDS011;19905;53.370;-6.314;2022-09-14T09:06:11;1.08;;;0.70;;
29934;SDS011;19905;53.370;-6.314;2022-09-14T09:09:01;1.45;;;0.90;;
29934;SDS011;19905;53.370;-6.314;2022-09-14T09:11:44;2.10;;;0.93;;
29934;SDS011;19905;53.370;-6.314;2022-09-14T09:14:25;2.05;;;0.70;;
29934;SDS011;19905;53.370;-6.314;2022-09-14T09:17:14;2.17;;;0.77;;
29934;SDS011;19905;53.370;-6.314;2022-09-14T09:19:55;1.15;;;0.80;;
29934;SDS011;19905;53.370;-6.314;2022-09-14T09:22:48;1.77;;;0.80;;
29934;SDS011;19905;53.370;-6.314;2022-09-14T09:25:25;2.75;;;0.80;;
29934;SDS011;19905;53.370;-6.314;2022-09-14T09:30:37;2.05;;;0.95;;
29934;SDS011;19905;53.370;-6.314;2022-09-14T09:36:36;1.50;;;1.08;;
29934;SDS011;19905;53.370;-6.314;2022-09-14T09:39:10;2.15;;;1.20;;
29934;SDS011;19905;53.370;-6.314;2022-09-14T09:41:41;2.97;;;1.30;;
29934;SDS011;19905;53.370;-6.314;2022-09-14T09:44:24;1.73;;;1.27;;
29934;SDS011;19905;53.370;-6.314;2022-09-14T09:46:53;1.20;;;1.02;;
29934;SDS011;19905;53.370;-6.314;2022-09-14T09:49:24;2.33;;;1.15;;
29934;SDS011;19905;53.370;-6.314;2022-09-14T09:54:57;1.08;;;0.80;;
29934;SDS011;19905;53.370;-6.314;2022-09-14T10:00:21;2.55;;;0.93;;
29934;SDS011;19905;53.370;-6.314;2022-09-14T10:02:59;0.80;;;0.80;;
29934;SDS011;19905;53.370;-6.314;2022-09-14T10:08:41;0.98;;;0.88;;
29934;SDS011;19905;53.370;-6.314;2022-09-14T10:15:04;0.93;;;0.60;;
29934;SDS011;19905;53.370;-6.314;2022-09-14T10:23:29;1.20;;;0.80;;
29934;SDS011;19905;53.370;-6.314;2022-09-14T10:34:51;4.32;;;1.05;;
29934;SDS011;19905;53.370;-6.314;2022-09-14T10:37:36;1.75;;;0.98;;
29934;SDS011;19905;53.370;-6.314;2022-09-14T10:40:12;1.55;;;0.70;;
29934;SDS011;19905;53.370;-6.314;2022-09-14T10:45:50;1.92;;;0.80;;
29934;SDS011;19905;53.370;-6.314;2022-09-14T10:48:34;1.27;;;1.00;;
29934;SDS011;19905;53.370;-6.314;2022-09-14T10:51:20;3.00;;;1.00;;
29934;SDS011;19905;53.370;-6.314;2022-09-14T10:56:57;2.67;;;0.98;;
29934;SDS011;19905;53.370;-6.314;2022-09-14T11:02:22;2.03;;;1.00;;
29934;SDS011;19905;53.370;-6.314;2022-09-14T11:05:12;1.27;;;0.90;;
29934;SDS011;19905;53.370;-6.314;2022-09-14T11:13:48;1.80;;;1.17;;
29934;SDS011;19905;53.370;-6.314;2022-09-14T11:19:36;2.28;;;1.02;;
29934;SDS011;19905;53.370;-6.314;2022-09-14T11:22:17;2.28;;;0.90;;
29934;SDS011;19905;53.370;-6.314;2022-09-14T11:27:48;3.95;;;1.00;;
29934;SDS011;19905;53.370;-6.314;2022-09-14T11:30:33;4.90;;;1.40;;
29934;SDS011;19905;53.370;-6.314;2022-09-14T11:33:21;5.50;;;1.80;;
29934;SDS011;19905;53.370;-6.314;2022-09-14T11:35:59;4.70;;;1.25;;
29934;SDS011;19905;53.370;-6.314;2022-09-14T11:43:53;16.98;;;2.70;;
29934;SDS011;19905;53.370;-6.314;2022-09-14T11:46:28;13.30;;;2.75;;
29934;SDS011;19905;53.370;-6.314;2022-09-14T11:49:09;12.75;;;2.45;;
29934;SDS011;19905;53.370;-6.314;2022-09-14T11:51:46;10.82;;;2.50;;
29934;SDS011;19905;53.370;-6.314;2022-09-14T11:54:20;10.07;;;2.53;;
29934;SDS011;19905;53.370;-6.314;2022-09-14T11:56:51;12.88;;;2.97;;
29934;SDS011;19905;53.370;-6.314;2022-09-14T11:59:44;8.77;;;2.75;;
29934;SDS011;19905;53.370;-6.314;2022-09-14T12:08:04;12.38;;;2.92;;
29934;SDS011;19905;53.370;-6.314;2022-09-14T12:11:22;14.82;;;3.10;;
29934;SDS011;19905;53.370;-6.314;2022-09-14T12:17:01;18.27;;;6.18;;
29934;SDS011;19905;53.370;-6.314;2022-09-14T12:19:53;12.48;;;4.15;;
29934;SDS011;19905;53.370;-6.314;2022-09-14T12:22:30;12.35;;;3.80;;
29934;SDS011;19905;53.370;-6.314;2022-09-14T12:25:00;17.33;;;3.83;;
29934;SDS011;19905;53.370;-6.314;2022-09-14T12:27:34;16.70;;;3.95;;
29934;SDS011;19905;53.370;-6.314;2022-09-14T12:33:39;12.30;;;3.30;;
29934;SDS011;19905;53.370;-6.314;2022-09-14T12:36:09;16.80;;;3.50;;
29934;SDS011;19905;53.370;-6.314;2022-09-14T12:39:18;16.83;;;3.72;;
29934;SDS011;19905;53.370;-6.314;2022-09-14T12:44:59;14.07;;;3.25;;
29934;SDS011;19905;53.370;-6.314;2022-09-14T12:58:59;18.00;;;3.20;;
29934;SDS011;19905;53.370;-6.314;2022-09-14T13:05:29;15.32;;;3.55;;
29934;SDS011;19905;53.370;-6.314;2022-09-14T13:08:06;29.02;;;8.18;;
29934;SDS011;19905;53.370;-6.314;2022-09-14T13:10:43;25.90;;;7.80;;
29934;SDS011;19905;53.370;-6.314;2022-09-14T13:13:15;18.08;;;7.15;;
29934;SDS011;19905;53.370;-6.314;2022-09-14T13:15:53;8.98;;;2.90;;
29934;SDS011;19905;53.370;-6.314;2022-09-14T13:18:29;14.60;;;3.13;;
29934;SDS011;19905;53.370;-6.314;2022-09-14T13:21:11;11.68;;;3.13;;
29934;SDS011;19905;53.370;-6.314;2022-09-14T13:23:46;11.05;;;3.00;;
29934;SDS011;19905;53.370;-6.314;2022-09-14T13:26:16;14.50;;;2.83;;
29934;SDS011;19905;53.370;-6.314;2022-09-14T13:28:48;10.57;;;2.85;;
29934;SDS011;19905;53.370;-6.314;2022-09-14T13:31:21;12.40;;;3.17;;
29934;SDS011;19905;53.370;-6.314;2022-09-14T13:33:56;11.13;;;3.17;;
29934;SDS011;19905;53.370;-6.314;2022-09-14T13:36:28;16.10;;;3.28;;
29934;SDS011;19905;53.370;-6.314;2022-09-14T13:39:01;15.40;;;3.45;;
29934;SDS011;19905;53.370;-6.314;2022-09-14T13:41:30;12.15;;;2.95;;
29934;SDS011;19905;53.370;-6.314;2022-09-14T13:44:00;13.38;;;2.97;;
29934;SDS011;19905;53.370;-6.314;2022-09-14T13:46:29;11.35;;;2.83;;
29934;SDS011;19905;53.370;-6.314;2022-09-14T13:48:59;11.48;;;3.17;;
29934;SDS011;19905;53.370;-6.314;2022-09-14T13:51:29;8.75;;;2.45;;
29934;SDS011;19905;53.370;-6.314;2022-09-14T13:54:14;11.90;;;2.83;;
29934;SDS011;19905;53.370;-6.314;2022-09-14T13:56:59;8.15;;;2.47;;
29934;SDS011;19905;53.370;-6.314;2022-09-14T14:02:34;10.20;;;2.65;;
29934;SDS011;19905;53.370;-6.314;2022-09-14T14:05:18;7.75;;;2.60;;
29934;SDS011;19905;53.370;-6.314;2022-09-14T14:07:50;9.68;;;2.70;;
29934;SDS011;19905;53.370;-6.314;2022-09-14T14:10:22;10.65;;;2.70;;
29934;SDS011;19905;53.370;-6.314;2022-09-14T14:12:54;13.13;;;2.63;;
29934;SDS011;19905;53.370;-6.314;2022-09-14T14:21:12;11.02;;;2.72;;
29934;SDS011;19905;53.370;-6.314;2022-09-14T14:23:46;9.55;;;2.80;;
29934;SDS011;19905;53.370;-6.314;2022-09-14T14:26:35;10.07;;;2.70;;
29934;SDS011;19905;53.370;-6.314;2022-09-14T14:29:07;12.23;;;2.97;;
29934;SDS011;19905;53.370;-6.314;2022-09-14T14:31:37;7.75;;;2.65;;
29934;SDS011;19905;53.370;-6.314;2022-09-14T14:34:09;13.30;;;3.42;;
29934;SDS011;19905;53.370;-6.314;2022-09-14T14:36:44;11.48;;;3.10;;
29934;SDS011;19905;53.370;-6.314;2022-09-14T14:39:17;12.00;;;2.85;;
29934;SDS011;19905;53.370;-6.314;2022-09-14T14:41:50;10.20;;;2.53;;
29934;SDS011;19905;53.370;-6.314;2022-09-14T14:44:21;10.38;;;2.63;;
29934;SDS011;19905;53.370;-6.314;2022-09-14T14:46:51;12.07;;;2.67;;
29934;SDS011;19905;53.370;-6.314;2022-09-14T14:49:20;9.27;;;2.58;;
29934;SDS011;19905;53.370;-6.314;2022-09-14T14:51:51;9.73;;;2.70;;
29934;SDS011;19905;53.370;-6.314;2022-09-14T14:54:24;8.40;;;2.40;;
29934;SDS011;19905;53.370;-6.314;2022-09-14T14:57:01;8.05;;;2.20;;
29934;SDS011;19905;53.370;-6.314;2022-09-14T14:59:33;8.75;;;2.45;;
29934;SDS011;19905;53.370;-6.314;2022-09-14T15:02:02;9.25;;;2.60;;
29934;SDS011;19905;53.370;-6.314;2022-09-14T15:04:32;10.20;;;2.70;;
29934;SDS011;19905;53.370;-6.314;2022-09-14T15:12:41;7.90;;;2.58;;
29934;SDS011;19905;53.370;-6.314;2022-09-14T15:15:11;11.80;;;2.63;;
29934;SDS011;19905;53.370;-6.314;2022-09-14T15:17:43;10.07;;;2.40;;
29934;SDS011;19905;53.370;-6.314;2022-09-14T15:20:12;10.45;;;2.55;;
29934;SDS011;19905;53.370;-6.314;2022-09-14T15:22:53;7.55;;;2.30;;
29934;SDS011;19905;53.370;-6.314;2022-09-14T15:25:25;10.73;;;2.78;;
29934;SDS011;19905;53.370;-6.314;2022-09-14T15:27:54;9.70;;;2.40;;
29934;SDS011;19905;53.370;-6.314;2022-09-14T15:33:19;10.90;;;2.92;;
29934;SDS011;19905;53.370;-6.314;2022-09-14T15:35:53;14.50;;;3.20;;
29934;SDS011;19905;53.370;-6.314;2022-09-14T15:38:31;15.27;;;3.50;;
29934;SDS011;19905;53.370;-6.314;2022-09-14T15:41:10;10.30;;;2.80;;
29934;SDS011;19905;53.370;-6.314;2022-09-14T15:43:42;14.93;;;4.10;;
29934;SDS011;19905;53.370;-6.314;2022-09-14T15:46:16;17.52;;;4.30;;
29934;SDS011;19905;53.370;-6.314;2022-09-14T15:48:46;13.45;;;4.00;;
29934;SDS011;19905;53.370;-6.314;2022-09-14T15:51:14;14.35;;;3.40;;
29934;SDS011;19905;53.370;-6.314;2022-09-14T15:53:54;21.83;;;5.38;;
29934;SDS011;19905;53.370;-6.314;2022-09-14T15:56:24;18.90;;;4.63;;
29934;SDS011;19905;53.370;-6.314;2022-09-14T15:58:52;23.55;;;7.53;;
29934;SDS011;19905;53.370;-6.314;2022-09-14T16:03:59;12.05;;;2.90;;
29934;SDS011;19905;53.370;-6.314;2022-09-14T16:06:29;15.50;;;3.00;;
29934;SDS011;19905;53.370;-6.314;2022-09-14T16:08:59;12.43;;;2.80;;
29934;SDS011;19905;53.370;-6.314;2022-09-14T16:11:30;10.00;;;2.90;;
29934;SDS011;19905;53.370;-6.314;2022-09-14T16:13:58;11.75;;;2.90;;
29934;SDS011;19905;53.370;-6.314;2022-09-14T16:16:30;13.32;;;3.15;;
29934;SDS011;19905;53.370;-6.314;2022-09-14T16:19:02;11.27;;;2.80;;
29934;SDS011;19905;53.370;-6.314;2022-09-14T16:21:31;14.32;;;2.83;;
29934;SDS011;19905;53.370;-6.314;2022-09-14T16:26:37;9.00;;;2.60;;
29934;SDS011;19905;53.370;-6.314;2022-09-14T16:29:23;11.38;;;2.70;;
29934;SDS011;19905;53.370;-6.314;2022-09-14T16:31:59;11.85;;;2.63;;
29934;SDS011;19905;53.370;-6.314;2022-09-14T16:34:38;13.02;;;2.63;;
29934;SDS011;19905;53.370;-6.314;2022-09-14T16:39:40;9.57;;;2.30;;
29934;SDS011;19905;53.370;-6.314;2022-09-14T16:42:11;10.20;;;2.65;;
29934;SDS011;19905;53.370;-6.314;2022-09-14T16:47:26;10.43;;;2.38;;
29934;SDS011;19905;53.370;-6.314;2022-09-14T16:49:56;8.98;;;2.40;;
29934;SDS011;19905;53.370;-6.314;2022-09-14T16:52:31;8.82;;;2.38;;
29934;SDS011;19905;53.370;-6.314;2022-09-14T16:55:00;6.88;;;1.98;;
29934;SDS011;19905;53.370;-6.314;2022-09-14T16:57:30;6.68;;;1.88;;
29934;SDS011;19905;53.370;-6.314;2022-09-14T16:59:59;5.40;;;2.00;;
29934;SDS011;19905;53.370;-6.314;2022-09-14T17:02:27;9.38;;;2.35;;
29934;SDS011;19905;53.370;-6.314;2022-09-14T17:04:56;10.65;;;2.85;;
29934;SDS011;19905;53.370;-6.314;2022-09-14T17:07:25;5.72;;;2.17;;
29934;SDS011;19905;53.370;-6.314;2022-09-14T17:09:54;10.00;;;2.30;;
29934;SDS011;19905;53.370;-6.314;2022-09-14T17:12:23;6.53;;;2.00;;
29934;SDS011;19905;53.370;-6.314;2022-09-14T17:14:54;7.63;;;2.10;;
29934;SDS011;19905;53.370;-6.314;2022-09-14T17:17:22;7.18;;;1.88;;
29934;SDS011;19905;53.370;-6.314;2022-09-14T17:19:51;5.82;;;1.92;;
29934;SDS011;19905;53.370;-6.314;2022-09-14T17:22:19;6.75;;;2.10;;
29934;SDS011;19905;53.370;-6.314;2022-09-14T17:24:48;4.40;;;1.80;;
29934;SDS011;19905;53.370;-6.314;2022-09-14T17:27:16;8.23;;;1.90;;
29934;SDS011;19905;53.370;-6.314;2022-09-14T17:29:45;8.75;;;2.10;;
29934;SDS011;19905;53.370;-6.314;2022-09-14T17:32:15;4.15;;;1.90;;
29934;SDS011;19905;53.370;-6.314;2022-09-14T17:34:44;5.97;;;2.00;;
29934;SDS011;19905;53.370;-6.314;2022-09-14T17:37:12;6.15;;;1.90;;
29934;SDS011;19905;53.370;-6.314;2022-09-14T17:39:41;6.30;;;1.70;;
29934;SDS011;19905;53.370;-6.314;2022-09-14T17:42:10;5.75;;;1.90;;
29934;SDS011;19905;53.370;-6.314;2022-09-14T17:44:39;8.82;;;2.35;;
29934;SDS011;19905;53.370;-6.314;2022-09-14T17:47:07;7.63;;;2.20;;
29934;SDS011;19905;53.370;-6.314;2022-09-14T17:49:37;6.93;;;1.90;;
29934;SDS011;19905;53.370;-6.314;2022-09-14T17:52:06;7.35;;;2.17;;